sensor_id;sensor_type;location;lat;lon;timestamp;P1;durP1;ratioP1;P2;durP2;ratioP2
28714;SDS011;15886;49.170;14.572;2023-03-31T00:02:07;3.50;;;1.70;;
28714;SDS011;15886;49.170;14.572;2023-03-31T00:04:51;3.35;;;2.15;;
28714;SDS011;15886;49.170;14.572;2023-03-31T00:07:27;4.03;;;2.20;;
28714;SDS011;15886;49.170;14.572;2023-03-31T00:10:17;4.00;;;1.95;;
28714;SDS011;15886;49.170;14.572;2023-03-31T00:12:51;4.20;;;1.63;;
28714;SDS011;15886;49.170;14.572;2023-03-31T00:15:37;2.40;;;1.48;;
28714;SDS011;15886;49.170;14.572;2023-03-31T00:18:35;2.78;;;1.95;;
28714;SDS011;15886;49.170;14.572;2023-03-31T00:21:25;4.82;;;2.30;;
28714;SDS011;15886;49.170;14.572;2023-03-31T00:24:05;2.33;;;1.88;;
28714;SDS011;15886;49.170;14.572;2023-03-31T00:26:35;3.50;;;2.10;;
28714;SDS011;15886;49.170;14.572;2023-03-31T00:29:08;4.50;;;2.22;;
28714;SDS011;15886;49.170;14.572;2023-03-31T00:31:40;3.38;;;2.08;;
28714;SDS011;15886;49.170;14.572;2023-03-31T00:34:12;5.43;;;2.78;;
28714;SDS011;15886;49.170;14.572;2023-03-31T00:36:43;4.00;;;2.50;;
28714;SDS011;15886;49.170;14.572;2023-03-31T00:42:09;4.70;;;1.98;;
28714;SDS011;15886;49.170;14.572;2023-03-31T00:48:03;3.45;;;1.92;;
28714;SDS011;15886;49.170;14.572;2023-03-31T00:50:48;4.15;;;1.88;;
28714;SDS011;15886;49.170;14.572;2023-03-31T00:53:21;3.85;;;1.90;;
28714;SDS011;15886;49.170;14.572;2023-03-31T00:55:53;3.60;;;1.80;;
28714;SDS011;15886;49.170;14.572;2023-03-31T00:58:25;5.93;;;2.83;;
28714;SDS011;15886;49.170;14.572;2023-03-31T01:01:00;2.80;;;2.03;;
28714;SDS011;15886;49.170;14.572;2023-03-31T01:03:30;4.32;;;2.30;;
28714;SDS011;15886;49.170;14.572;2023-03-31T01:06:18;6.20;;;2.67;;
28714;SDS011;15886;49.170;14.572;2023-03-31T01:08:48;5.07;;;2.83;;
28714;SDS011;15886;49.170;14.572;2023-03-31T01:11:20;6.30;;;3.28;;
28714;SDS011;15886;49.170;14.572;2023-03-31T01:14:01;8.95;;;4.63;;
28714;SDS011;15886;49.170;14.572;2023-03-31T01:16:30;9.65;;;4.30;;
28714;SDS011;15886;49.170;14.572;2023-03-31T01:19:01;8.35;;;4.45;;
28714;SDS011;15886;49.170;14.572;2023-03-31T01:33:08;11.55;;;4.57;;
28714;SDS011;15886;49.170;14.572;2023-03-31T01:39:11;8.45;;;3.53;;
28714;SDS011;15886;49.170;14.572;2023-03-31T01:42:07;5.18;;;3.00;;
28714;SDS011;15886;49.170;14.572;2023-03-31T01:47:34;7.40;;;2.53;;
28714;SDS011;15886;49.170;14.572;2023-03-31T01:56:24;9.13;;;2.83;;
28714;SDS011;15886;49.170;14.572;2023-03-31T01:59:01;9.05;;;2.33;;
28714;SDS011;15886;49.170;14.572;2023-03-31T02:04:16;10.90;;;6.63;;
28714;SDS011;15886;49.170;14.572;2023-03-31T02:06:54;10.85;;;6.40;;
28714;SDS011;15886;49.170;14.572;2023-03-31T02:09:28;11.90;;;7.72;;
28714;SDS011;15886;49.170;14.572;2023-03-31T02:12:04;11.02;;;7.22;;
28714;SDS011;15886;49.170;14.572;2023-03-31T02:14:37;14.60;;;8.27;;
28714;SDS011;15886;49.170;14.572;2023-03-31T02:17:14;7.35;;;4.85;;
28714;SDS011;15886;49.170;14.572;2023-03-31T02:19:46;9.32;;;5.72;;
28714;SDS011;15886;49.170;14.572;2023-03-31T02:22:17;12.18;;;5.40;;
28714;SDS011;15886;49.170;14.572;2023-03-31T02:24:48;11.88;;;6.00;;
28714;SDS011;15886;49.170;14.572;2023-03-31T02:27:27;8.60;;;4.63;;
28714;SDS011;15886;49.170;14.572;2023-03-31T02:30:02;8.38;;;3.20;;
28714;SDS011;15886;49.170;14.572;2023-03-31T02:35:09;11.73;;;3.40;;
28714;SDS011;15886;49.170;14.572;2023-03-31T02:37:45;5.28;;;2.88;;
28714;SDS011;15886;49.170;14.572;2023-03-31T02:40:17;7.63;;;3.22;;
28714;SDS011;15886;49.170;14.572;2023-03-31T02:42:48;5.60;;;2.55;;
28714;SDS011;15886;49.170;14.572;2023-03-31T02:45:36;5.78;;;3.00;;
28714;SDS011;15886;49.170;14.572;2023-03-31T02:48:09;9.00;;;3.47;;
28714;SDS011;15886;49.170;14.572;2023-03-31T02:51:24;6.25;;;3.55;;
28714;SDS011;15886;49.170;14.572;2023-03-31T02:54:07;8.77;;;2.95;;
28714;SDS011;15886;49.170;14.572;2023-03-31T03:02:56;6.82;;;2.83;;
28714;SDS011;15886;49.170;14.572;2023-03-31T03:05:52;5.25;;;2.78;;
28714;SDS011;15886;49.170;14.572;2023-03-31T03:12:06;6.50;;;3.03;;
28714;SDS011;15886;49.170;14.572;2023-03-31T03:20:03;5.75;;;2.50;;
28714;SDS011;15886;49.170;14.572;2023-03-31T03:22:36;8.93;;;3.50;;
28714;SDS011;15886;49.170;14.572;2023-03-31T03:25:06;11.85;;;3.58;;
28714;SDS011;15886;49.170;14.572;2023-03-31T03:27:37;10.35;;;3.40;;
28714;SDS011;15886;49.170;14.572;2023-03-31T03:30:07;9.32;;;3.20;;
28714;SDS011;15886;49.170;14.572;2023-03-31T03:32:45;5.88;;;2.67;;
28714;SDS011;15886;49.170;14.572;2023-03-31T03:35:14;5.57;;;2.63;;
28714;SDS011;15886;49.170;14.572;2023-03-31T03:37:42;6.97;;;3.05;;
28714;SDS011;15886;49.170;14.572;2023-03-31T03:40:10;9.82;;;3.88;;
28714;SDS011;15886;49.170;14.572;2023-03-31T03:42:42;8.55;;;3.10;;
28714;SDS011;15886;49.170;14.572;2023-03-31T03:45:10;13.02;;;4.85;;
28714;SDS011;15886;49.170;14.572;2023-03-31T03:47:41;6.05;;;3.22;;
28714;SDS011;15886;49.170;14.572;2023-03-31T03:50:09;6.30;;;3.10;;
28714;SDS011;15886;49.170;14.572;2023-03-31T03:52:38;7.10;;;3.03;;
28714;SDS011;15886;49.170;14.572;2023-03-31T03:55:06;5.70;;;3.13;;
28714;SDS011;15886;49.170;14.572;2023-03-31T03:57:37;5.65;;;3.25;;
28714;SDS011;15886;49.170;14.572;2023-03-31T04:00:05;9.27;;;3.25;;
28714;SDS011;15886;49.170;14.572;2023-03-31T04:02:38;8.27;;;3.20;;
28714;SDS011;15886;49.170;14.572;2023-03-31T04:05:06;8.30;;;3.17;;
28714;SDS011;15886;49.170;14.572;2023-03-31T04:07:34;7.10;;;3.05;;
28714;SDS011;15886;49.170;14.572;2023-03-31T04:10:02;7.40;;;3.28;;
28714;SDS011;15886;49.170;14.572;2023-03-31T04:12:35;9.73;;;3.28;;
28714;SDS011;15886;49.170;14.572;2023-03-31T04:18:43;8.23;;;3.15;;
28714;SDS011;15886;49.170;14.572;2023-03-31T04:21:59;10.77;;;3.50;;
28714;SDS011;15886;49.170;14.572;2023-03-31T04:30:08;9.82;;;4.43;;
28714;SDS011;15886;49.170;14.572;2023-03-31T04:46:42;10.07;;;4.03;;
28714;SDS011;15886;49.170;14.572;2023-03-31T04:53:41;9.95;;;4.47;;
28714;SDS011;15886;49.170;14.572;2023-03-31T05:00:27;8.70;;;4.60;;
28714;SDS011;15886;49.170;14.572;2023-03-31T05:05:56;14.02;;;5.72;;
28714;SDS011;15886;49.170;14.572;2023-03-31T05:20:33;9.15;;;5.35;;
28714;SDS011;15886;49.170;14.572;2023-03-31T05:27:07;10.18;;;6.35;;
28714;SDS011;15886;49.170;14.572;2023-03-31T05:30:24;9.80;;;6.78;;
28714;SDS011;15886;49.170;14.572;2023-03-31T06:10:57;17.45;;;9.23;;
28714;SDS011;15886;49.170;14.572;2023-03-31T06:14:41;18.73;;;8.95;;
28714;SDS011;15886;49.170;14.572;2023-03-31T06:31:36;16.73;;;8.55;;
28714;SDS011;15886;49.170;14.572;2023-03-31T06:35:58;17.88;;;7.78;;
28714;SDS011;15886;49.170;14.572;2023-03-31T06:47:37;11.77;;;5.20;;
28714;SDS011;15886;49.170;14.572;2023-03-31T07:07:21;13.63;;;5.43;;
28714;SDS011;15886;49.170;14.572;2023-03-31T07:15:04;13.13;;;6.15;;
28714;SDS011;15886;49.170;14.572;2023-03-31T07:27:03;12.50;;;5.22;;
28714;SDS011;15886;49.170;14.572;2023-03-31T07:29:49;10.70;;;6.03;;
28714;SDS011;15886;49.170;14.572;2023-03-31T07:37:02;7.97;;;5.32;;
28714;SDS011;15886;49.170;14.572;2023-03-31T07:40:10;13.18;;;5.65;;
28714;SDS011;15886;49.170;14.572;2023-03-31T07:43:45;10.18;;;5.00;;
28714;SDS011;15886;49.170;14.572;2023-03-31T07:50:54;10.55;;;5.75;;
28714;SDS011;15886;49.170;14.572;2023-03-31T08:18:38;12.60;;;7.75;;
28714;SDS011;15886;49.170;14.572;2023-03-31T08:25:51;12.93;;;6.30;;
28714;SDS011;15886;49.170;14.572;2023-03-31T08:37:20;10.80;;;5.20;;
28714;SDS011;15886;49.170;14.572;2023-03-31T09:22:54;17.85;;;9.20;;
28714;SDS011;15886;49.170;14.572;2023-03-31T09:26:26;21.58;;;10.60;;
28714;SDS011;15886;49.170;14.572;2023-03-31T10:23:48;12.18;;;6.55;;
28714;SDS011;15886;49.170;14.572;2023-03-31T13:14:23;5.15;;;2.10;;
28714;SDS011;15886;49.170;14.572;2023-03-31T13:28:42;5.65;;;2.17;;
28714;SDS011;15886;49.170;14.572;2023-03-31T13:31:26;6.07;;;2.55;;
28714;SDS011;15886;49.170;14.572;2023-03-31T14:14:59;4.35;;;2.58;;
28714;SDS011;15886;49.170;14.572;2023-03-31T14:34:40;5.18;;;2.28;;
28714;SDS011;15886;49.170;14.572;2023-03-31T14:38:00;7.95;;;2.63;;
28714;SDS011;15886;49.170;14.572;2023-03-31T14:40:50;6.45;;;2.58;;
28714;SDS011;15886;49.170;14.572;2023-03-31T14:44:05;4.90;;;2.40;;
28714;SDS011;15886;49.170;14.572;2023-03-31T14:46:57;3.67;;;2.28;;
28714;SDS011;15886;49.170;14.572;2023-03-31T14:50:16;6.10;;;2.20;;
28714;SDS011;15886;49.170;14.572;2023-03-31T14:52:55;4.80;;;2.42;;
28714;SDS011;15886;49.170;14.572;2023-03-31T14:56:13;3.20;;;1.65;;
28714;SDS011;15886;49.170;14.572;2023-03-31T14:59:54;5.15;;;2.20;;
28714;SDS011;15886;49.170;14.572;2023-03-31T15:03:47;7.97;;;1.98;;
28714;SDS011;15886;49.170;14.572;2023-03-31T15:07:14;6.22;;;2.67;;
28714;SDS011;15886;49.170;14.572;2023-03-31T15:15:04;4.32;;;1.83;;
28714;SDS011;15886;49.170;14.572;2023-03-31T15:18:26;4.60;;;2.55;;
28714;SDS011;15886;49.170;14.572;2023-03-31T15:21:00;3.47;;;1.75;;
28714;SDS011;15886;49.170;14.572;2023-03-31T15:23:34;5.60;;;2.47;;
28714;SDS011;15886;49.170;14.572;2023-03-31T15:26:33;3.25;;;1.60;;
28714;SDS011;15886;49.170;14.572;2023-03-31T15:29:56;2.47;;;1.30;;
28714;SDS011;15886;49.170;14.572;2023-03-31T15:32:49;4.78;;;3.92;;
28714;SDS011;15886;49.170;14.572;2023-03-31T15:35:40;14.40;;;10.90;;
28714;SDS011;15886;49.170;14.572;2023-03-31T15:38:17;10.40;;;6.25;;
28714;SDS011;15886;49.170;14.572;2023-03-31T15:41:14;3.83;;;2.22;;
28714;SDS011;15886;49.170;14.572;2023-03-31T15:49:23;6.72;;;2.63;;
28714;SDS011;15886;49.170;14.572;2023-03-31T15:52:01;17.73;;;10.02;;
28714;SDS011;15886;49.170;14.572;2023-03-31T15:54:39;30.15;;;15.20;;
28714;SDS011;15886;49.170;14.572;2023-03-31T15:57:32;54.35;;;21.50;;
28714;SDS011;15886;49.170;14.572;2023-03-31T16:00:18;27.13;;;10.32;;
28714;SDS011;15886;49.170;14.572;2023-03-31T17:01:48;7.05;;;5.20;;
28714;SDS011;15886;49.170;14.572;2023-03-31T17:05:00;7.70;;;4.72;;
28714;SDS011;15886;49.170;14.572;2023-03-31T17:12:15;4.90;;;3.03;;
28714;SDS011;15886;49.170;14.572;2023-03-31T17:24:30;30.35;;;22.80;;
28714;SDS011;15886;49.170;14.572;2023-03-31T17:28:09;3.30;;;2.90;;
28714;SDS011;15886;49.170;14.572;2023-03-31T17:37:09;2.67;;;1.60;;
28714;SDS011;15886;49.170;14.572;2023-03-31T17:39:59;2.20;;;1.60;;
28714;SDS011;15886;49.170;14.572;2023-03-31T17:46:08;4.25;;;1.67;;
28714;SDS011;15886;49.170;14.572;2023-03-31T17:49:16;4.22;;;1.30;;
28714;SDS011;15886;49.170;14.572;2023-03-31T17:51:47;2.40;;;1.73;;
28714;SDS011;15886;49.170;14.572;2023-03-31T17:54:24;5.53;;;3.25;;
28714;SDS011;15886;49.170;14.572;2023-03-31T17:57:46;5.03;;;3.08;;
28714;SDS011;15886;49.170;14.572;2023-03-31T18:32:03;6.05;;;1.52;;
28714;SDS011;15886;49.170;14.572;2023-03-31T18:48:29;2.28;;;1.45;;
28714;SDS011;15886;49.170;14.572;2023-03-31T19:05:14;6.28;;;2.63;;
28714;SDS011;15886;49.170;14.572;2023-03-31T19:08:06;2.58;;;1.30;;
28714;SDS011;15886;49.170;14.572;2023-03-31T19:10:45;4.50;;;1.40;;
28714;SDS011;15886;49.170;14.572;2023-03-31T19:19:40;4.35;;;2.50;;
28714;SDS011;15886;49.170;14.572;2023-03-31T19:22:21;6.22;;;1.90;;
28714;SDS011;15886;49.170;14.572;2023-03-31T19:25:37;7.30;;;2.80;;
28714;SDS011;15886;49.170;14.572;2023-03-31T19:28:14;6.05;;;1.77;;
28714;SDS011;15886;49.170;14.572;2023-03-31T19:31:55;4.68;;;1.13;;
28714;SDS011;15886;49.170;14.572;2023-03-31T19:34:23;12.45;;;2.30;;
28714;SDS011;15886;49.170;14.572;2023-03-31T19:37:05;4.85;;;1.60;;
28714;SDS011;15886;49.170;14.572;2023-03-31T19:40:50;6.15;;;2.22;;
28714;SDS011;15886;49.170;14.572;2023-03-31T19:46:58;8.07;;;2.33;;
28714;SDS011;15886;49.170;14.572;2023-03-31T19:50:29;4.47;;;2.17;;
28714;SDS011;15886;49.170;14.572;2023-03-31T19:57:16;5.07;;;2.15;;
28714;SDS011;15886;49.170;14.572;2023-03-31T20:00:30;4.55;;;2.20;;
28714;SDS011;15886;49.170;14.572;2023-03-31T20:03:03;5.60;;;1.88;;
28714;SDS011;15886;49.170;14.572;2023-03-31T20:07:01;3.53;;;1.10;;
28714;SDS011;15886;49.170;14.572;2023-03-31T20:12:44;5.38;;;1.98;;
28714;SDS011;15886;49.170;14.572;2023-03-31T20:15:31;3.72;;;1.70;;
28714;SDS011;15886;49.170;14.572;2023-03-31T20:18:27;6.53;;;2.67;;
28714;SDS011;15886;49.170;14.572;2023-03-31T20:21:11;4.70;;;1.70;;
28714;SDS011;15886;49.170;14.572;2023-03-31T20:23:46;3.53;;;2.05;;
28714;SDS011;15886;49.170;14.572;2023-03-31T20:33:03;3.95;;;1.83;;
28714;SDS011;15886;49.170;14.572;2023-03-31T20:36:16;4.07;;;1.60;;
28714;SDS011;15886;49.170;14.572;2023-03-31T20:39:42;5.85;;;2.15;;
28714;SDS011;15886;49.170;14.572;2023-03-31T20:42:35;2.83;;;1.30;;
28714;SDS011;15886;49.170;14.572;2023-03-31T20:45:38;4.38;;;1.25;;
28714;SDS011;15886;49.170;14.572;2023-03-31T20:48:09;9.45;;;2.30;;
28714;SDS011;15886;49.170;14.572;2023-03-31T20:50:47;2.30;;;1.02;;
28714;SDS011;15886;49.170;14.572;2023-03-31T20:58:20;3.75;;;1.38;;
28714;SDS011;15886;49.170;14.572;2023-03-31T21:02:10;2.53;;;1.30;;
28714;SDS011;15886;49.170;14.572;2023-03-31T21:05:06;3.03;;;1.17;;
28714;SDS011;15886;49.170;14.572;2023-03-31T21:10:56;3.58;;;1.20;;
28714;SDS011;15886;49.170;14.572;2023-03-31T21:21:30;3.58;;;0.98;;
28714;SDS011;15886;49.170;14.572;2023-03-31T21:25:22;1.88;;;0.80;;
28714;SDS011;15886;49.170;14.572;2023-03-31T21:28:48;1.73;;;0.80;;
28714;SDS011;15886;49.170;14.572;2023-03-31T21:32:05;2.03;;;0.60;;
28714;SDS011;15886;49.170;14.572;2023-03-31T21:34:48;0.70;;;0.55;;
28714;SDS011;15886;49.170;14.572;2023-03-31T21:46:11;4.35;;;1.00;;
28714;SDS011;15886;49.170;14.572;2023-03-31T21:49:26;3.50;;;0.90;;
28714;SDS011;15886;49.170;14.572;2023-03-31T21:59:06;4.93;;;1.40;;
28714;SDS011;15886;49.170;14.572;2023-03-31T22:02:02;5.97;;;1.40;;
28714;SDS011;15886;49.170;14.572;2023-03-31T22:06:13;0.88;;;0.60;;
28714;SDS011;15886;49.170;14.572;2023-03-31T22:09:33;3.42;;;0.93;;
28714;SDS011;15886;49.170;14.572;2023-03-31T22:21:39;3.60;;;1.38;;
28714;SDS011;15886;49.170;14.572;2023-03-31T22:33:15;3.35;;;1.27;;
28714;SDS011;15886;49.170;14.572;2023-03-31T22:36:36;2.80;;;0.90;;
28714;SDS011;15886;49.170;14.572;2023-03-31T22:46:28;3.60;;;0.95;;
28714;SDS011;15886;49.170;14.572;2023-03-31T22:49:02;1.73;;;1.15;;
28714;SDS011;15886;49.170;14.572;2023-03-31T22:52:02;1.85;;;0.93;;
28714;SDS011;15886;49.170;14.572;2023-03-31T23:02:24;2.90;;;1.00;;
28714;SDS011;15886;49.170;14.572;2023-03-31T23:04:53;4.05;;;1.10;;
28714;SDS011;15886;49.170;14.572;2023-03-31T23:07:24;2.78;;;0.90;;
28714;SDS011;15886;49.170;14.572;2023-03-31T23:10:03;2.97;;;0.90;;
28714;SDS011;15886;49.170;14.572;2023-03-31T23:12:33;2.03;;;0.90;;
28714;SDS011;15886;49.170;14.572;2023-03-31T23:15:01;4.18;;;1.20;;
28714;SDS011;15886;49.170;14.572;2023-03-31T23:17:31;3.58;;;0.90;;
28714;SDS011;15886;49.170;14.572;2023-03-31T23:19:59;1.98;;;0.85;;
28714;SDS011;15886;49.170;14.572;2023-03-31T23:22:28;3.70;;;0.90;;
28714;SDS011;15886;49.170;14.572;2023-03-31T23:24:57;2.72;;;0.98;;
28714;SDS011;15886;49.170;14.572;2023-03-31T23:27:25;2.00;;;0.80;;
28714;SDS011;15886;49.170;14.572;2023-03-31T23:29:53;2.28;;;0.95;;
28714;SDS011;15886;49.170;14.572;2023-03-31T23:32:21;3.00;;;1.00;;
28714;SDS011;15886;49.170;14.572;2023-03-31T23:34:50;3.63;;;0.80;;
28714;SDS011;15886;49.170;14.572;2023-03-31T23:37:18;3.28;;;0.63;;
28714;SDS011;15886;49.170;14.572;2023-03-31T23:39:54;2.25;;;0.85;;
28714;SDS011;15886;49.170;14.572;2023-03-31T23:42:25;2.30;;;1.00;;
28714;SDS011;15886;49.170;14.572;2023-03-31T23:44:53;3.25;;;0.80;;
28714;SDS011;15886;49.170;14.572;2023-03-31T23:47:24;3.78;;;0.80;;
28714;SDS011;15886;49.170;14.572;2023-03-31T23:49:52;4.00;;;1.00;;
28714;SDS011;15886;49.170;14.572;2023-03-31T23:52:24;2.92;;;1.00;;
28714;SDS011;15886;49.170;14.572;2023-03-31T23:54:54;3.03;;;0.88;;
28714;SDS011;15886;49.170;14.572;2023-03-31T23:57:22;1.30;;;0.80;;
28714;SDS011;15886;49.170;14.572;2023-03-31T23:59:51;2.50;;;0.90;;
